createdAt,value
2018-09-18T00:02:01.349Z,52.00
2018-09-18T00:04:29.611Z,51.70
2018-09-18T00:06:57.892Z,51.80
2018-09-18T00:09:26.159Z,51.70
2018-09-18T00:11:54.438Z,51.90
2018-09-18T00:14:22.697Z,52.00
2018-09-18T00:16:50.980Z,52.10
2018-09-18T00:19:19.242Z,51.50
2018-09-18T00:21:47.515Z,51.70
2018-09-18T00:24:15.805Z,51.60
2018-09-18T00:26:44.064Z,51.40
2018-09-18T00:29:12.364Z,51.10
2018-09-18T00:31:40.624Z,51.50
2018-09-18T00:34:08.896Z,51.20
2018-09-18T00:36:37.172Z,50.90
2018-09-18T00:39:07.026Z,50.90
2018-09-18T00:41:35.380Z,51.20
2018-09-18T00:44:03.636Z,51.30
2018-09-18T00:46:31.930Z,51.50
2018-09-18T00:49:00.184Z,51.60
2018-09-18T00:51:28.459Z,51.20
2018-09-18T00:53:56.733Z,51.30
2018-09-18T00:56:24.993Z,51.30
2018-09-18T00:58:53.267Z,51.50
2018-09-18T01:01:21.566Z,51.70
2018-09-18T01:03:49.873Z,51.80
2018-09-18T01:06:18.148Z,51.70
2018-09-18T01:08:46.397Z,51.50
2018-09-18T01:11:14.722Z,51.30
2018-09-18T01:13:43.029Z,51.00
2018-09-18T01:16:11.299Z,50.60
2018-09-18T01:18:40.877Z,50.50
2018-09-18T01:21:09.808Z,50.40
2018-09-18T01:23:38.140Z,50.70
2018-09-18T01:26:06.407Z,50.80
2018-09-18T01:28:35.341Z,50.80
2018-09-18T01:31:03.847Z,50.60
2018-09-18T01:33:32.116Z,50.40
2018-09-18T01:36:00.371Z,50.90
2018-09-18T01:38:28.655Z,51.00
2018-09-18T01:40:56.924Z,51.20
2018-09-18T01:43:25.184Z,51.40
2018-09-18T01:45:53.455Z,51.40
2018-09-18T01:48:21.727Z,51.00
2018-09-18T01:50:49.985Z,51.10
2018-09-18T01:53:18.239Z,51.30
2018-09-18T01:55:46.537Z,51.30
2018-09-18T01:58:14.796Z,51.80
2018-09-18T02:00:43.059Z,51.50
2018-09-18T02:03:11.355Z,51.50
2018-09-18T02:05:39.620Z,51.50
2018-09-18T02:08:07.884Z,51.50
2018-09-18T02:10:36.136Z,51.00
2018-09-18T02:13:04.432Z,50.90
2018-09-18T02:15:32.721Z,50.70
2018-09-18T02:18:00.984Z,50.80
2018-09-18T02:20:29.268Z,50.90
2018-09-18T02:22:57.549Z,51.10
2018-09-18T02:25:25.805Z,51.10
2018-09-18T02:27:54.162Z,51.40
2018-09-18T02:30:22.484Z,51.20
2018-09-18T02:32:50.769Z,51.20
2018-09-18T02:35:19.306Z,51.20
2018-09-18T02:37:47.692Z,50.80
2018-09-18T02:40:15.986Z,51.40
2018-09-18T02:42:44.257Z,51.50
2018-09-18T02:45:12.524Z,51.50
2018-09-18T02:47:40.800Z,51.40
2018-09-18T02:50:09.079Z,51.50
2018-09-18T02:52:37.364Z,51.10
2018-09-18T02:55:05.847Z,50.80
2018-09-18T02:57:34.344Z,50.80
2018-09-18T03:00:02.622Z,51.10
2018-09-18T03:02:30.880Z,50.90
2018-09-18T03:04:59.160Z,50.80
2018-09-18T03:07:27.434Z,50.70
2018-09-18T03:09:55.696Z,50.70
2018-09-18T03:12:23.963Z,50.70
2018-09-18T03:14:52.232Z,50.50
2018-09-18T03:17:20.513Z,50.20
2018-09-18T03:19:48.793Z,49.90
2018-09-18T03:22:17.071Z,50.40
2018-09-18T03:24:45.345Z,50.60
2018-09-18T03:27:13.642Z,50.20
2018-09-18T03:29:41.875Z,50.20
2018-09-18T03:32:10.150Z,50.10
2018-09-18T03:34:38.425Z,50.30
2018-09-18T03:37:06.693Z,49.60
2018-09-18T03:39:34.974Z,50.00
2018-09-18T03:42:03.397Z,49.70
2018-09-18T03:44:31.659Z,49.70
2018-09-18T03:46:59.951Z,49.90
2018-09-18T03:49:28.225Z,49.90
2018-09-18T03:51:56.517Z,49.60
2018-09-18T03:54:24.795Z,49.60
2018-09-18T03:56:53.072Z,49.70
2018-09-18T03:59:21.349Z,50.00
2018-09-18T04:01:49.617Z,50.00
2018-09-18T04:04:17.893Z,50.00
2018-09-18T04:06:46.165Z,49.80
2018-09-18T04:09:14.460Z,49.90
2018-09-18T04:11:42.750Z,49.90
2018-09-18T04:14:11.033Z,50.10
2018-09-18T04:16:39.297Z,50.10
2018-09-18T04:19:07.589Z,50.00
2018-09-18T04:21:39.321Z,50.10
2018-09-18T04:24:07.581Z,50.10
2018-09-18T04:26:36.281Z,50.10
2018-09-18T04:29:04.766Z,49.80
2018-09-18T04:31:33.051Z,49.70
2018-09-18T04:34:01.325Z,50.10
2018-09-18T04:36:29.613Z,49.90
2018-09-18T04:38:58.695Z,49.60
2018-09-18T04:41:26.955Z,49.90
2018-09-18T04:43:55.245Z,50.50
2018-09-18T04:46:23.876Z,50.40
2018-09-18T04:48:52.269Z,50.50
2018-09-18T04:51:20.631Z,50.70
2018-09-18T04:53:49.014Z,50.30
2018-09-18T04:56:17.291Z,50.60
2018-09-18T04:58:46.333Z,50.50
2018-09-18T05:01:14.625Z,50.70
2018-09-18T05:03:42.928Z,50.80
2018-09-18T05:06:11.177Z,51.10
2018-09-18T05:08:42.251Z,50.90
2018-09-18T05:11:10.539Z,51.00
2018-09-18T05:13:38.841Z,50.70
2018-09-18T05:16:07.107Z,50.50
2018-09-18T05:18:35.421Z,50.30
2018-09-18T05:21:03.709Z,50.10
2018-09-18T05:23:31.980Z,50.10
2018-09-18T05:26:00.269Z,50.20
2018-09-18T05:28:28.558Z,50.40
2018-09-18T05:30:56.864Z,50.60
2018-09-18T05:33:25.739Z,50.70
2018-09-18T05:35:54.096Z,50.70
2018-09-18T05:38:22.487Z,50.70
2018-09-18T05:40:50.773Z,50.80
2018-09-18T05:43:19.061Z,50.90
2018-09-18T05:45:47.317Z,51.00
2018-09-18T05:48:15.729Z,51.20
2018-09-18T05:50:43.875Z,51.30
2018-09-18T05:53:12.512Z,51.20
2018-09-18T05:55:41.100Z,51.00
2018-09-18T05:58:09.385Z,51.00
2018-09-18T06:00:37.666Z,50.70
2018-09-18T06:03:05.935Z,51.00
2018-09-18T06:05:34.225Z,51.00
2018-09-18T06:08:02.483Z,51.00
2018-09-18T06:10:30.749Z,51.00
2018-09-18T06:12:59.045Z,50.90
2018-09-18T06:15:27.712Z,51.00
2018-09-18T06:17:56.010Z,51.20
2018-09-18T06:20:24.273Z,51.60
2018-09-18T06:22:52.568Z,51.50
2018-09-18T06:25:20.844Z,51.40
2018-09-18T06:27:49.117Z,51.40
2018-09-18T06:30:17.389Z,51.40
2018-09-18T06:32:45.661Z,51.60
2018-09-18T06:35:13.963Z,51.90
2018-09-18T06:37:43.163Z,52.10
2018-09-18T06:40:11.715Z,52.30
2018-09-18T06:42:40.009Z,52.30
2018-09-18T06:45:08.345Z,52.10
2018-09-18T06:47:36.659Z,52.20
2018-09-18T06:50:04.945Z,52.40
2018-09-18T06:52:33.241Z,52.60
2018-09-18T06:55:01.727Z,52.40
2018-09-18T06:57:30.013Z,52.40
2018-09-18T06:59:58.481Z,52.60
2018-09-18T07:02:26.760Z,52.70
2018-09-18T07:04:55.069Z,52.80
2018-09-18T07:07:23.433Z,53.50
2018-09-18T07:09:51.719Z,53.90
2018-09-18T07:12:19.999Z,53.70
2018-09-18T07:14:48.309Z,53.50
2018-09-18T07:17:16.574Z,53.50
2018-09-18T07:19:44.919Z,53.60
2018-09-18T07:22:13.201Z,54.50
2018-09-18T07:24:41.491Z,54.70
2018-09-18T07:27:09.787Z,54.50
2018-09-18T07:29:38.689Z,54.50
2018-09-18T07:32:07.752Z,54.90
2018-09-18T07:34:36.037Z,55.20
2018-09-18T07:37:04.339Z,55.60
2018-09-18T07:39:32.591Z,56.00
2018-09-18T07:42:00.865Z,55.70
2018-09-18T07:44:29.179Z,55.50
2018-09-18T07:46:57.447Z,55.50
2018-09-18T07:49:25.726Z,55.30
2018-09-18T07:51:54.015Z,55.60
2018-09-18T07:54:22.292Z,55.70
2018-09-18T07:56:50.556Z,55.70
2018-09-18T07:59:18.844Z,56.10
2018-09-18T08:01:47.151Z,56.30
2018-09-18T08:04:15.454Z,56.40
2018-09-18T08:06:43.741Z,56.80
2018-09-18T08:09:12.071Z,57.00
2018-09-18T08:11:40.434Z,57.10
2018-09-18T08:14:08.700Z,57.20
2018-09-18T08:16:36.969Z,57.40
2018-09-18T08:19:05.658Z,57.70
2018-09-18T08:21:34.181Z,58.00
2018-09-18T08:24:02.437Z,58.10
2018-09-18T08:26:30.716Z,58.00
2018-09-18T08:28:59.213Z,57.70
2018-09-18T08:31:27.471Z,57.60
2018-09-18T08:33:55.980Z,57.10
2018-09-18T08:36:24.255Z,56.90
2018-09-18T08:38:52.613Z,56.90
2018-09-18T08:41:20.910Z,57.20
2018-09-18T08:43:49.209Z,57.60
2018-09-18T08:46:17.504Z,57.80
2018-09-18T08:48:57.920Z,57.80
2018-09-18T08:51:26.549Z,58.00
2018-09-18T08:53:54.863Z,57.80
2018-09-18T08:56:23.164Z,58.10
2018-09-18T08:58:51.820Z,58.20
2018-09-18T09:01:20.149Z,58.20
2018-09-18T09:03:48.765Z,58.70
2018-09-18T09:06:16.993Z,58.20
2018-09-18T09:08:45.344Z,58.40
2018-09-18T09:11:13.543Z,59.30
2018-09-18T09:13:41.814Z,58.60
2018-09-18T09:16:10.122Z,58.80
2018-09-18T09:18:38.446Z,59.40
2018-09-18T09:21:06.743Z,59.00
2018-09-18T09:23:35.053Z,58.70
2018-09-18T09:26:03.319Z,58.40
2018-09-18T09:28:31.584Z,58.40
2018-09-18T09:30:59.870Z,58.70
2018-09-18T09:33:28.128Z,57.70
2018-09-18T09:35:56.407Z,58.20
2018-09-18T09:38:24.674Z,58.40
2018-09-18T09:40:52.924Z,58.80
2018-09-18T09:43:21.213Z,58.80
2018-09-18T09:45:49.500Z,58.80
2018-09-18T09:48:17.764Z,59.20
2018-09-18T09:50:46.054Z,58.90
2018-09-18T09:53:14.317Z,59.50
2018-09-18T09:55:42.683Z,59.40
2018-09-18T09:58:10.972Z,59.40
2018-09-18T10:00:45.351Z,59.50
2018-09-18T10:03:14.402Z,59.80
2018-09-18T10:05:42.677Z,58.80
2018-09-18T10:08:10.945Z,58.50
2018-09-18T10:10:39.320Z,58.20
2018-09-18T10:13:07.514Z,58.90
2018-09-18T10:15:35.802Z,59.40
2018-09-18T10:18:04.137Z,59.70
2018-09-18T10:20:32.442Z,58.70
2018-09-18T10:23:00.729Z,59.00
2018-09-18T10:25:28.994Z,59.70
2018-09-18T10:27:57.256Z,59.30
2018-09-18T10:30:25.571Z,59.30
2018-09-18T10:32:53.817Z,59.60
2018-09-18T10:35:22.077Z,59.40
2018-09-18T10:37:50.362Z,60.00
2018-09-18T10:40:18.636Z,59.70
2018-09-18T10:42:47.033Z,60.00
2018-09-18T10:45:15.220Z,60.10
2018-09-18T10:47:43.485Z,60.10
2018-09-18T10:50:11.765Z,60.00
2018-09-18T10:52:40.031Z,59.70
2018-09-18T10:55:08.342Z,59.30
2018-09-18T10:57:36.629Z,58.30
2018-09-18T11:00:06.141Z,58.50
2018-09-18T11:02:34.421Z,59.20
2018-09-18T11:05:02.717Z,59.40
2018-09-18T11:07:31.299Z,59.20
2018-09-18T11:09:59.611Z,59.80
2018-09-18T11:12:27.853Z,59.80
2018-09-18T11:14:56.185Z,59.70
2018-09-18T11:17:24.442Z,59.80
2018-09-18T11:19:52.907Z,60.40
2018-09-18T11:22:21.256Z,59.80
2018-09-18T11:24:49.554Z,59.60
2018-09-18T11:27:18.874Z,60.10
2018-09-18T11:29:47.179Z,59.50
2018-09-18T11:32:15.482Z,59.90
2018-09-18T11:34:43.775Z,59.70
2018-09-18T11:37:12.061Z,59.80
2018-09-18T11:39:40.334Z,60.00
2018-09-18T11:42:08.623Z,59.90
2018-09-18T11:44:36.943Z,60.00
2018-09-18T11:47:05.209Z,59.80
2018-09-18T11:49:33.515Z,59.70
2018-09-18T11:52:01.792Z,59.80
2018-09-18T11:54:30.060Z,59.90
2018-09-18T11:56:58.440Z,60.00
2018-09-18T11:59:26.717Z,59.90
2018-09-18T12:01:55.009Z,60.10
2018-09-18T12:04:23.282Z,60.00
2018-09-18T12:06:51.548Z,60.30
2018-09-18T12:09:19.826Z,60.50
2018-09-18T12:11:48.559Z,60.40
2018-09-18T12:14:16.859Z,60.80
2018-09-18T12:16:45.166Z,60.70
2018-09-18T12:19:13.501Z,60.60
2018-09-18T12:21:41.745Z,60.40
2018-09-18T12:24:10.117Z,60.70
2018-09-18T12:26:38.409Z,60.70
2018-09-18T12:29:06.739Z,60.80
2018-09-18T12:31:35.029Z,60.80
2018-09-18T12:34:03.293Z,60.90
2018-09-18T12:36:31.581Z,60.60
2018-09-18T12:38:59.850Z,60.60
2018-09-18T12:41:28.189Z,60.70
2018-09-18T12:43:56.413Z,60.90
2018-09-18T12:46:24.683Z,60.70
2018-09-18T12:48:52.971Z,60.60
2018-09-18T12:51:21.242Z,60.60
2018-09-18T12:53:49.702Z,60.60
2018-09-18T12:56:18.918Z,60.60
2018-09-18T12:58:47.260Z,60.40
2018-09-18T13:01:15.463Z,60.30
2018-09-18T13:03:43.736Z,60.40
2018-09-18T13:06:12.275Z,60.00
2018-09-18T13:08:40.452Z,60.00
2018-09-18T13:11:08.747Z,59.90
2018-09-18T13:13:37.777Z,60.20
2018-09-18T13:16:07.256Z,60.00
2018-09-18T13:18:35.763Z,59.90
2018-09-18T13:21:04.058Z,60.60
2018-09-18T13:23:32.344Z,60.50
2018-09-18T13:26:01.575Z,60.80
2018-09-18T13:28:29.833Z,61.20
2018-09-18T13:30:58.112Z,61.10
2018-09-18T13:33:26.392Z,60.60
2018-09-18T13:35:54.661Z,60.70
2018-09-18T13:38:23.199Z,60.70
2018-09-18T13:40:51.499Z,60.60
2018-09-18T13:43:19.792Z,60.50
2018-09-18T13:45:48.982Z,60.50
2018-09-18T13:48:17.314Z,60.50
2018-09-18T13:50:45.594Z,60.70
2018-09-18T13:53:13.872Z,60.60
2018-09-18T13:55:42.199Z,60.50
2018-09-18T13:58:10.473Z,60.80
2018-09-18T14:00:39.292Z,60.50
2018-09-18T14:03:07.582Z,60.20
2018-09-18T14:05:35.929Z,60.30
2018-09-18T14:08:04.408Z,60.10
2018-09-18T14:10:32.700Z,60.30
2018-09-18T14:13:00.984Z,60.20
2018-09-18T14:15:29.283Z,60.10
2018-09-18T14:17:57.625Z,59.90
2018-09-18T14:20:26.029Z,60.00
2018-09-18T14:22:54.286Z,59.60
2018-09-18T14:25:23.338Z,59.50
2018-09-18T14:27:51.694Z,59.80
2018-09-18T14:30:19.998Z,60.40
2018-09-18T14:32:48.286Z,60.10
2018-09-18T14:35:16.568Z,59.90
2018-09-18T14:37:44.869Z,59.60
2018-09-18T14:40:13.159Z,59.70
2018-09-18T14:42:41.438Z,59.60
2018-09-18T14:45:09.752Z,59.40
2018-09-18T14:47:38.017Z,59.40
2018-09-18T14:50:06.378Z,59.50
2018-09-18T14:52:34.803Z,59.40
2018-09-18T14:55:03.077Z,59.10
2018-09-18T14:57:31.401Z,58.10
2018-09-18T14:59:59.741Z,58.00
2018-09-18T15:02:28.000Z,57.90
2018-09-18T15:04:56.361Z,58.20
2018-09-18T15:07:24.626Z,58.30
2018-09-18T15:09:52.880Z,58.40
2018-09-18T15:12:21.150Z,58.30
2018-09-18T15:14:49.435Z,58.40
2018-09-18T15:17:17.745Z,58.40
2018-09-18T15:19:46.082Z,58.60
2018-09-18T15:22:14.372Z,58.50
2018-09-18T15:24:42.624Z,58.50
2018-09-18T15:27:10.918Z,58.40
2018-09-18T15:29:39.231Z,58.30
2018-09-18T15:32:07.524Z,58.30
2018-09-18T15:34:35.935Z,58.00
2018-09-18T15:37:04.270Z,58.10
2018-09-18T15:39:32.587Z,58.80
2018-09-18T15:42:00.913Z,59.20
2018-09-18T15:44:29.189Z,60.00
2018-09-18T15:46:57.482Z,58.30
2018-09-18T15:49:26.122Z,58.30
2018-09-18T15:51:54.447Z,57.60
2018-09-18T15:54:22.729Z,58.10
2018-09-18T15:56:51.964Z,57.80
2018-09-18T15:59:20.279Z,58.30
2018-09-18T16:01:48.640Z,58.40
2018-09-18T16:04:16.939Z,58.30
2018-09-18T16:06:45.237Z,58.00
2018-09-18T16:09:13.540Z,57.80
2018-09-18T16:11:41.836Z,57.40
2018-09-18T16:14:11.106Z,57.40
2018-09-18T16:16:39.422Z,57.40
2018-09-18T16:19:08.290Z,57.70
2018-09-18T16:21:36.576Z,57.90
2018-09-18T16:24:04.920Z,58.00
2018-09-18T16:26:33.282Z,58.60
2018-09-18T16:29:01.640Z,58.70
2018-09-18T16:31:29.974Z,58.70
2018-09-18T16:33:58.274Z,58.60
2018-09-18T16:36:27.698Z,58.80
2018-09-18T16:38:56.073Z,58.80
2018-09-18T16:41:25.064Z,59.00
2018-09-18T16:43:53.743Z,58.90
2018-09-18T16:46:22.041Z,59.90
2018-09-18T16:48:50.360Z,61.00
2018-09-18T16:51:18.702Z,62.40
2018-09-18T16:53:47.054Z,62.30
2018-09-18T16:56:15.464Z,63.00
2018-09-18T16:58:43.910Z,63.20
2018-09-18T17:01:12.373Z,63.20
2018-09-18T17:03:41.388Z,63.70
2018-09-18T17:06:09.686Z,62.90
2018-09-18T17:08:38.020Z,62.30
2018-09-18T17:11:06.407Z,63.20
2018-09-18T17:13:34.821Z,63.10
2018-09-18T17:16:03.137Z,62.50
2018-09-18T17:18:32.343Z,62.50
2018-09-18T17:21:00.646Z,61.90
2018-09-18T17:23:28.995Z,61.40
2018-09-18T17:25:58.152Z,61.10
2018-09-18T17:28:26.516Z,61.00
2018-09-18T17:30:54.759Z,60.80
2018-09-18T17:33:23.115Z,60.90
2018-09-18T17:35:51.510Z,63.30
2018-09-18T17:38:19.894Z,65.70
2018-09-18T17:40:48.181Z,65.70
2018-09-18T17:43:16.494Z,64.80
2018-09-18T17:45:44.955Z,64.20
2018-09-18T17:48:13.278Z,64.50
2018-09-18T17:50:41.610Z,65.00
2018-09-18T17:53:09.934Z,64.40
2018-09-18T17:55:38.263Z,64.50
2018-09-18T17:58:06.569Z,65.00
2018-09-18T18:00:35.104Z,65.10
2018-09-18T18:03:03.453Z,65.20
2018-09-18T18:05:31.928Z,64.50
2018-09-18T18:08:00.272Z,65.30
2018-09-18T18:10:29.561Z,65.80
2018-09-18T18:12:57.908Z,66.40
2018-09-18T18:15:26.253Z,66.40
2018-09-18T18:17:54.619Z,66.10
2018-09-18T18:20:24.081Z,66.60
2018-09-18T18:22:52.479Z,67.10
2018-09-18T18:25:21.063Z,67.20
2018-09-18T18:27:49.510Z,68.00
2018-09-18T18:30:18.430Z,67.80
2018-09-18T18:32:47.852Z,67.70
2018-09-18T18:35:16.343Z,67.70
2018-09-18T18:37:45.418Z,67.30
2018-09-18T18:40:14.085Z,67.40
2018-09-18T18:42:42.485Z,67.00
2018-09-18T18:45:10.900Z,67.50
2018-09-18T18:47:39.333Z,67.90
2018-09-18T18:50:07.766Z,67.80
2018-09-18T18:52:36.268Z,67.70
2018-09-18T18:55:05.903Z,67.40
2018-09-18T18:57:34.579Z,67.50
2018-09-18T19:00:02.975Z,68.00
2018-09-18T19:02:31.471Z,68.00
2018-09-18T19:04:59.971Z,68.00
2018-09-18T19:07:28.789Z,67.80
2018-09-18T19:09:57.301Z,67.40
2018-09-18T19:12:25.861Z,67.10
2018-09-18T19:14:54.273Z,67.00
2018-09-18T19:17:22.702Z,67.10
2018-09-18T19:19:51.328Z,67.10
2018-09-18T19:22:19.809Z,67.20
2018-09-18T19:24:48.319Z,67.00
2018-09-18T19:27:16.870Z,66.80
2018-09-18T19:29:45.320Z,67.40
2018-09-18T19:32:13.763Z,67.70
2018-09-18T19:34:42.616Z,67.40
2018-09-18T19:37:12.376Z,67.40
2018-09-18T19:39:41.758Z,67.20
2018-09-18T19:42:10.245Z,67.30
2018-09-18T19:44:38.654Z,67.20
2018-09-18T19:47:07.146Z,67.20
2018-09-18T19:49:39.246Z,67.00
2018-09-18T19:52:08.860Z,67.40
2018-09-18T19:54:37.213Z,66.30
2018-09-18T19:57:06.061Z,65.80
2018-09-18T19:59:35.454Z,65.70
2018-09-18T20:02:03.845Z,65.60
2018-09-18T20:04:32.239Z,65.60
2018-09-18T20:07:00.642Z,65.80
2018-09-18T20:09:29.125Z,66.00
2018-09-18T20:11:58.197Z,65.90
2018-09-18T20:14:26.594Z,65.70
2018-09-18T20:16:56.574Z,65.50
2018-09-18T20:19:26.224Z,65.80
2018-09-18T20:21:54.802Z,66.10
2018-09-18T20:24:24.954Z,66.10
2018-09-18T20:26:54.123Z,66.10
2018-09-18T20:29:22.515Z,65.90
2018-09-18T20:31:50.861Z,65.80
2018-09-18T20:34:19.211Z,65.80
2018-09-18T20:36:47.696Z,65.80
2018-09-18T20:39:16.047Z,65.90
2018-09-18T20:41:44.470Z,65.60
2018-09-18T20:44:12.853Z,65.40
2018-09-18T20:46:41.204Z,65.10
2018-09-18T20:49:09.555Z,64.60
2018-09-18T20:51:37.917Z,64.30
2018-09-18T20:54:06.278Z,64.10
2018-09-18T20:56:34.610Z,64.00
2018-09-18T20:59:02.929Z,64.10
2018-09-18T21:01:31.291Z,64.30
2018-09-18T21:03:59.572Z,64.40
2018-09-18T21:06:27.868Z,64.30
2018-09-18T21:08:56.171Z,64.30
2018-09-18T21:11:24.527Z,64.40
2018-09-18T21:13:52.818Z,64.60
2018-09-18T21:16:21.082Z,64.70
2018-09-18T21:18:49.411Z,64.80
2018-09-18T21:21:17.700Z,64.50
2018-09-18T21:23:46.909Z,64.30
2018-09-18T21:26:18.274Z,63.70
2018-09-18T21:28:47.487Z,63.40
2018-09-18T21:31:15.903Z,63.50
2018-09-18T21:33:44.181Z,63.60
2018-09-18T21:36:12.549Z,63.70
2018-09-18T21:38:40.838Z,63.50
2018-09-18T21:41:09.129Z,63.40
2018-09-18T21:43:37.403Z,62.90
2018-09-18T21:46:05.688Z,62.80
2018-09-18T21:48:33.967Z,62.70
2018-09-18T21:51:02.252Z,62.50
2018-09-18T21:53:30.578Z,62.90
2018-09-18T21:55:58.847Z,63.20
2018-09-18T21:58:27.130Z,63.30
2018-09-18T22:00:55.391Z,63.00
2018-09-18T22:03:23.667Z,62.90
2018-09-18T22:05:51.937Z,63.10
2018-09-18T22:08:20.207Z,63.20
2018-09-18T22:10:48.511Z,63.10
2018-09-18T22:13:16.787Z,63.20
2018-09-18T22:15:45.065Z,63.30
2018-09-18T22:18:13.307Z,63.10
2018-09-18T22:20:41.600Z,62.80
2018-09-18T22:23:09.875Z,62.40
2018-09-18T22:25:38.163Z,61.90
2018-09-18T22:28:06.473Z,62.30
2018-09-18T22:30:34.737Z,62.40
2018-09-18T22:33:03.027Z,61.80
2018-09-18T22:35:31.501Z,61.70
2018-09-18T22:37:59.795Z,62.00
2018-09-18T22:40:28.068Z,62.20
2018-09-18T22:42:56.578Z,62.50
2018-09-18T22:45:24.890Z,62.30
2018-09-18T22:47:53.158Z,62.30
2018-09-18T22:50:21.413Z,62.50
2018-09-18T22:52:49.727Z,62.50
2018-09-18T22:55:17.994Z,62.50
2018-09-18T22:57:46.314Z,62.70
2018-09-18T23:00:14.590Z,62.50
2018-09-18T23:02:43.106Z,62.20
2018-09-18T23:05:11.387Z,62.00
2018-09-18T23:07:39.681Z,61.60
2018-09-18T23:10:07.957Z,61.30
2018-09-18T23:12:36.313Z,61.00
2018-09-18T23:15:04.643Z,60.80
2018-09-18T23:17:33.918Z,61.20
2018-09-18T23:20:02.200Z,62.20
2018-09-18T23:22:30.487Z,61.70
2018-09-18T23:24:58.715Z,61.90
2018-09-18T23:27:27.005Z,61.60
2018-09-18T23:29:55.312Z,61.80
2018-09-18T23:32:24.489Z,61.80
2018-09-18T23:34:52.773Z,61.90
2018-09-18T23:37:21.044Z,62.10
2018-09-18T23:39:49.297Z,61.90
2018-09-18T23:42:17.708Z,61.60
2018-09-18T23:44:45.969Z,61.60
2018-09-18T23:47:15.640Z,61.80
2018-09-18T23:49:43.899Z,61.90
2018-09-18T23:52:12.175Z,62.20
2018-09-18T23:54:40.433Z,62.30
2018-09-18T23:57:08.694Z,62.10
2018-09-18T23:59:36.946Z,62.50
